createdAt,value
2023-01-25T00:01:26.756Z,79.71
2023-01-25T00:04:12.425Z,79.64
2023-01-25T00:06:58.232Z,79.79
2023-01-25T00:09:43.510Z,79.86
2023-01-25T00:12:29.092Z,80.27
2023-01-25T00:15:15.216Z,80.69
2023-01-25T00:18:00.594Z,80.46
2023-01-25T00:20:46.382Z,80.12
2023-01-25T00:23:34.421Z,80.00
2023-01-25T00:26:20.240Z,79.85
2023-01-25T00:29:06.532Z,80.19
2023-01-25T00:31:58.748Z,80.36
2023-01-25T00:34:45.973Z,80.50
2023-01-25T00:37:42.112Z,80.37
2023-01-25T00:40:27.658Z,80.24
2023-01-25T00:43:14.652Z,80.81
2023-01-25T00:46:01.557Z,81.27
2023-01-25T00:48:48.151Z,81.27
2023-01-25T00:51:33.724Z,81.02
2023-01-25T00:54:19.819Z,81.20
2023-01-25T00:57:05.529Z,81.18
2023-01-25T00:59:51.211Z,81.43
2023-01-25T01:02:36.446Z,81.41
2023-01-25T01:05:21.954Z,81.49
2023-01-25T01:08:08.085Z,81.30
2023-01-25T01:10:59.756Z,81.37
2023-01-25T01:13:45.356Z,81.81
2023-01-25T01:16:31.040Z,81.60
2023-01-25T01:19:16.412Z,81.43
2023-01-25T01:22:01.748Z,81.71
2023-01-25T01:24:49.374Z,82.19
2023-01-25T01:27:34.870Z,82.01
2023-01-25T01:30:20.214Z,81.44
2023-01-25T01:33:06.648Z,81.50
2023-01-25T01:35:51.902Z,81.06
2023-01-25T01:38:37.783Z,80.91
2023-01-25T01:41:23.342Z,80.70
2023-01-25T01:44:48.464Z,80.60
2023-01-25T01:47:45.814Z,80.52
2023-01-25T01:50:32.926Z,80.29
2023-01-25T01:53:19.349Z,80.28
2023-01-25T01:56:10.414Z,80.32
2023-01-25T01:58:58.847Z,80.24
2023-01-25T02:01:44.870Z,80.23
2023-01-25T02:04:31.008Z,80.16
2023-01-25T02:07:19.714Z,80.54
2023-01-25T02:10:11.290Z,80.66
2023-01-25T02:12:59.669Z,80.50
2023-01-25T02:15:47.963Z,80.35
2023-01-25T02:18:33.557Z,80.31
2023-01-25T02:21:19.065Z,80.01
2023-01-25T02:24:11.341Z,80.05
2023-01-25T02:26:57.385Z,79.69
2023-01-25T02:29:43.848Z,79.70
2023-01-25T02:32:29.359Z,79.80
2023-01-25T02:35:37.781Z,79.90
2023-01-25T02:38:23.405Z,79.77
2023-01-25T02:41:18.176Z,79.84
2023-01-25T02:44:11.068Z,79.47
2023-01-25T02:46:56.545Z,79.36
2023-01-25T02:49:42.013Z,79.22
2023-01-25T02:52:28.327Z,79.77
2023-01-25T02:55:14.296Z,79.52
2023-01-25T02:58:02.732Z,79.34
2023-01-25T03:00:47.953Z,79.44
2023-01-25T03:03:33.583Z,79.29
2023-01-25T03:06:20.414Z,79.33
2023-01-25T03:09:08.861Z,79.38
2023-01-25T03:11:55.305Z,79.38
2023-01-25T03:14:44.409Z,79.56
2023-01-25T03:17:31.244Z,79.35
2023-01-25T03:20:16.937Z,79.21
2023-01-25T03:23:02.709Z,79.25
2023-01-25T03:25:48.052Z,79.28
2023-01-25T03:28:37.307Z,79.20
2023-01-25T03:31:23.185Z,79.72
2023-01-25T03:34:09.536Z,79.96
2023-01-25T03:36:58.485Z,79.73
2023-01-25T03:39:44.367Z,79.64
2023-01-25T03:42:30.780Z,79.90
2023-01-25T03:45:17.177Z,79.67
2023-01-25T03:48:02.592Z,80.14
2023-01-25T03:50:52.643Z,80.54
2023-01-25T03:53:39.473Z,80.45
2023-01-25T03:56:29.149Z,80.78
2023-01-25T03:59:40.784Z,80.66
2023-01-25T04:02:26.094Z,80.53
2023-01-25T04:05:12.672Z,81.01
2023-01-25T04:07:58.051Z,80.90
2023-01-25T04:10:53.019Z,81.30
2023-01-25T04:13:39.989Z,81.15
2023-01-25T04:16:30.578Z,80.87
2023-01-25T04:19:31.745Z,81.24
2023-01-25T04:22:19.230Z,80.95
2023-01-25T04:25:08.084Z,81.14
2023-01-25T04:27:55.428Z,81.24
2023-01-25T04:30:40.877Z,81.44
2023-01-25T04:33:27.403Z,81.49
2023-01-25T04:36:13.024Z,81.60
2023-01-25T04:38:59.398Z,81.35
2023-01-25T04:41:46.039Z,81.80
2023-01-25T04:44:32.882Z,81.99
2023-01-25T04:47:18.179Z,81.97
2023-01-25T04:50:06.413Z,82.23
2023-01-25T04:52:53.748Z,82.36
2023-01-25T04:55:40.527Z,82.37
2023-01-25T04:58:27.884Z,82.52
2023-01-25T05:01:14.003Z,82.69
2023-01-25T05:04:00.427Z,82.81
2023-01-25T05:06:53.032Z,82.95
2023-01-25T05:09:38.303Z,83.25
2023-01-25T05:12:23.932Z,82.98
2023-01-25T05:15:17.255Z,83.18
2023-01-25T05:18:03.915Z,82.80
2023-01-25T05:20:58.686Z,82.88
2023-01-25T05:23:45.353Z,83.01
2023-01-25T05:26:49.885Z,83.43
2023-01-25T05:29:43.889Z,83.73
2023-01-25T05:32:29.989Z,83.76
2023-01-25T05:35:17.417Z,83.64
2023-01-25T05:38:03.125Z,83.40
2023-01-25T05:40:48.478Z,83.28
2023-01-25T05:43:34.027Z,83.22
2023-01-25T05:46:22.250Z,82.74
2023-01-25T05:49:07.817Z,82.11
2023-01-25T05:51:53.352Z,81.98
2023-01-25T05:54:39.745Z,81.98
2023-01-25T05:57:26.364Z,82.21
2023-01-25T06:00:13.110Z,82.25
2023-01-25T06:03:01.177Z,82.10
2023-01-25T06:05:48.601Z,82.18
2023-01-25T06:08:35.675Z,82.32
2023-01-25T06:11:23.847Z,82.24
2023-01-25T06:14:12.010Z,82.61
2023-01-25T06:16:57.707Z,82.12
2023-01-25T06:25:06.909Z,81.81
2023-01-25T06:27:55.221Z,82.29
2023-01-25T06:30:40.847Z,82.29
2023-01-25T06:33:26.149Z,81.93
2023-01-25T06:36:14.437Z,81.54
2023-01-25T06:39:01.152Z,81.51
2023-01-25T06:41:47.278Z,82.15
2023-01-25T06:44:32.974Z,82.09
2023-01-25T06:47:18.298Z,81.89
2023-01-25T06:50:03.955Z,81.35
2023-01-25T06:52:55.951Z,81.34
2023-01-25T06:55:41.775Z,82.07
2023-01-25T06:58:29.083Z,82.28
2023-01-25T07:01:18.781Z,82.05
2023-01-25T07:04:04.655Z,82.08
2023-01-25T07:06:49.983Z,82.20
2023-01-25T07:09:36.286Z,81.46
2023-01-25T07:12:22.300Z,81.22
2023-01-25T07:15:08.499Z,81.41
2023-01-25T07:17:54.194Z,81.17
2023-01-25T07:20:39.595Z,81.16
2023-01-25T07:23:27.103Z,81.57
2023-01-25T07:26:24.677Z,80.74
2023-01-25T07:29:15.729Z,80.46
2023-01-25T07:32:01.239Z,80.80
2023-01-25T07:34:46.943Z,80.88
2023-01-25T07:37:34.281Z,80.02
2023-01-25T07:40:20.482Z,80.37
2023-01-25T07:43:05.991Z,80.05
2023-01-25T07:46:04.290Z,79.94
2023-01-25T07:48:52.385Z,79.67
2023-01-25T07:51:37.722Z,80.17
2023-01-25T07:54:23.136Z,80.19
2023-01-25T07:57:08.442Z,79.96
2023-01-25T07:59:53.820Z,79.99
2023-01-25T08:02:39.937Z,80.31
2023-01-25T08:05:25.815Z,79.98
2023-01-25T08:08:11.562Z,80.23
2023-01-25T08:10:57.016Z,80.32
2023-01-25T08:13:46.279Z,80.45
2023-01-25T08:16:32.799Z,80.46
2023-01-25T08:19:20.264Z,79.94
2023-01-25T08:22:08.437Z,80.09
2023-01-25T08:24:56.296Z,80.58
2023-01-25T08:27:42.820Z,80.52
2023-01-25T08:30:28.303Z,80.19
2023-01-25T08:33:13.842Z,80.29
2023-01-25T08:35:59.358Z,80.47
2023-01-25T08:38:46.053Z,79.78
2023-01-25T08:41:34.111Z,80.01
2023-01-25T08:44:24.007Z,80.30
2023-01-25T08:47:09.668Z,79.78
2023-01-25T08:49:55.362Z,80.28
2023-01-25T08:52:40.490Z,80.06
2023-01-25T08:55:26.228Z,80.21
2023-01-25T08:58:13.549Z,80.32
2023-01-25T09:01:07.372Z,80.70
2023-01-25T09:03:55.274Z,80.61
2023-01-25T09:06:40.897Z,81.01
2023-01-25T09:09:26.307Z,80.61
2023-01-25T09:12:11.649Z,80.59
2023-01-25T09:14:57.225Z,81.08
2023-01-25T09:17:44.039Z,81.44
2023-01-25T09:20:31.755Z,81.40
2023-01-25T09:23:22.772Z,81.69
2023-01-25T09:26:08.212Z,80.97
2023-01-25T09:28:54.690Z,80.78
2023-01-25T09:31:41.064Z,81.48
2023-01-25T09:34:45.191Z,80.83
2023-01-25T09:37:30.555Z,81.67
2023-01-25T09:40:25.396Z,81.35
2023-01-25T09:43:25.153Z,81.19
2023-01-25T09:46:37.195Z,81.50
2023-01-25T09:50:01.255Z,81.67
2023-01-25T09:53:05.125Z,82.11
2023-01-25T09:56:25.430Z,81.55
2023-01-25T09:59:17.491Z,82.18
2023-01-25T10:02:05.298Z,81.95
2023-01-25T10:04:55.965Z,81.93
2023-01-25T10:07:59.281Z,82.48
2023-01-25T10:10:46.669Z,82.24
2023-01-25T10:13:32.122Z,81.72
2023-01-25T10:16:31.250Z,81.58
2023-01-25T10:19:17.169Z,81.77
2023-01-25T10:22:19.299Z,81.50
2023-01-25T10:25:28.484Z,81.06
2023-01-25T10:28:30.495Z,81.05
2023-01-25T10:31:22.589Z,81.64
2023-01-25T10:34:20.350Z,81.16
2023-01-25T10:37:19.621Z,80.52
2023-01-25T10:40:17.582Z,80.38
2023-01-25T10:43:11.750Z,80.65
2023-01-25T10:45:57.279Z,80.34
2023-01-25T10:48:43.052Z,80.61
2023-01-25T10:51:35.658Z,79.58
2023-01-25T10:54:24.448Z,79.75
2023-01-25T10:57:22.677Z,79.75
2023-01-25T11:00:19.604Z,79.33
2023-01-25T11:03:06.308Z,79.03
2023-01-25T11:05:59.411Z,78.80
2023-01-25T11:08:45.063Z,79.08
2023-01-25T11:11:41.491Z,78.63
2023-01-25T11:14:30.748Z,78.66
2023-01-25T11:17:31.912Z,78.58
2023-01-25T11:20:19.802Z,78.97
2023-01-25T11:23:23.931Z,78.56
2023-01-25T11:26:14.333Z,78.77
2023-01-25T11:29:19.829Z,78.36
2023-01-25T11:32:17.385Z,78.36
2023-01-25T11:35:03.282Z,78.11
2023-01-25T11:38:14.037Z,77.57
2023-01-25T11:41:02.441Z,78.10
2023-01-25T11:44:17.056Z,78.66
2023-01-25T11:47:27.389Z,78.44
2023-01-25T11:50:31.094Z,78.95
2023-01-25T11:53:26.260Z,78.54
2023-01-25T11:56:37.697Z,78.54
2023-01-25T12:00:00.872Z,78.22
2023-01-25T12:03:05.560Z,78.19
2023-01-25T12:06:22.894Z,78.28
2023-01-25T12:09:19.616Z,78.36
2023-01-25T12:12:24.244Z,78.56
2023-01-25T12:15:19.068Z,78.30
2023-01-25T12:18:33.890Z,78.80
2023-01-25T12:21:39.012Z,80.44
2023-01-25T12:24:44.599Z,80.11
2023-01-25T12:27:48.807Z,79.50
2023-01-25T12:30:57.344Z,79.07
2023-01-25T12:34:04.079Z,78.73
2023-01-25T12:36:50.381Z,78.43
2023-01-25T12:39:47.640Z,78.39
2023-01-25T12:42:40.682Z,78.66
2023-01-25T12:45:31.306Z,78.59
2023-01-25T12:48:27.280Z,77.93
2023-01-25T12:51:15.220Z,77.72
2023-01-25T12:54:08.625Z,76.94
2023-01-25T12:57:22.065Z,76.94
